Карточка аэропорта UNWW

Внимание!
Информация на этой странице в стадии наполнения.
Если вы не увидели какой-то информации, или заметили неточность - пожалуйста сообщите нам!
Спасибо!
Команда RU-STAFF
Название аэропортаСпиченково
Название аэропорта (англ.)Spichenkovo
Превышение1023 ft. (311.8 m.)
Координаты53°48.714', 86°52.704'
Высота перехода800m
Эшелон переходаFL050
Коды ответчика5270-5277
Зона ОрВДНовосибирск РПИ (UNNT)
Данные METARUNWW 181800Z 12003MPS 9999 SCT043CB 10/03 Q1014 R19/09//55 NOSIG RMK QFE733
Проноз погоды (TAF)UNWW 181700Z 1818/1918 23009G20MPS 8000 BKN040CB TX15/1908Z TN08/1918Z TEMPO 1818/1903 25014G25MPS 1000 TSRA BKN005 BKN011CB TEMPO 1903/1906 -SHRA BKN016CB BECMG 1903/1905 29006G13MPS BECMG 1906/1909 33003G08MPS
NOTAMshow/hide NOTAM
AWOS   TABLE

Информация о ВПП

ВПП Длина ВПП (м.) Покрытие Курс ВПП Частота ILS
012679Цементобетон14 
192679Цементобетон194111.1

Диспетчерские позиции

Позывной Наименование органа УВД Частота
UNWW_TWRНовокузнецк-Старт121.2
UNWW_APPНовокузнецк-Подход118.6



Спутниковое изображение